KCTY/CTY METAR and TAF weather

Enter ICAO airport designator
Station Type Date Time Source
KCTY METAR 2020/12/05 06:15 UTC NOAA

KCTY 050615Z AUTO 34008KT 10SM SCT012 BKN020 BKN026 18/17 A3005 RMK AO2 T01780170


Station Type Date Time Source
KCTY Decoded METAR 2020/12/05 06:15 UTC NOAA

CROSS CITY AIRPORT, FL, United States (KCTY) 29-38N 083-06W 12M
Dec 05, 2020 - 01:15 AM EST / 2020.12.05 0615 UTC
Wind: from the NNW (340 degrees) at 9 MPH (8 KT):0
Visibility: 10 mile(s):0
Sky conditions: mostly cloudy
Temperature: 64.0 F (17.8 C)
Dew Point: 62.6 F (17.0 C)
Relative Humidity: 95%
Pressure (altimeter): 30.05 in. Hg (1017 hPa)
ob: KCTY 050615Z AUTO 34008KT 10SM SCT012 BKN020 BKN026 18/17 A3005 RMK AO2 T01780170
cycle: 6

Station Type Date Time Source
KCTY TAF UTC NOAA

Error!

Example: see airport list